Time;durP1;ratioP1;P1;durP2;ratioP2;P2;SDS_P1;SDS_P2;PMS_P1;PMS_P2;Temp;Humidity;BMP_temperature;BMP_pressure;BME280_temperature;BME280_humidity;BME280_pressure;Samples;Min_cycle;Max_cycle;Signal;HPM_P1;HPM_P2
2022/09/29 00:00:25;;;;;;;7.40;3.05;;;5.70;99.90;;;;;;5055608;28;20047;-71
2022/09/29 00:02:51;;;;;;;9.10;3.97;;;6.30;99.90;;;;;;5073020;28;20048;-72
2022/09/29 00:05:18;;;;;;;7.72;3.70;;;6.50;99.90;;;;;;5055330;28;20555;-71
2022/09/29 00:07:43;;;;;;;8.30;3.67;;;6.50;99.90;;;;;;5073185;28;20036;-71
2022/09/29 00:10:09;;;;;;;8.50;3.78;;;6.20;99.90;;;;;;5054882;28;20119;-71
2022/09/29 00:12:35;;;;;;;11.02;3.90;;;5.70;99.90;;;;;;5054441;28;20541;-72
2022/09/29 00:15:01;;;;;;;8.95;3.85;;;6.40;99.90;;;;;;5072729;28;20047;-73
2022/09/29 00:17:26;;;;;;;7.47;3.55;;;6.70;99.90;;;;;;5073201;28;20044;-73
2022/09/29 00:19:52;;;;;;;7.63;3.47;;;5.70;99.90;;;;;;5072926;28;20105;-73
2022/09/29 00:22:17;;;;;;;7.40;3.60;;;6.50;99.90;;;;;;5038300;28;20126;-72
2022/09/29 00:24:46;;;;;;;6.40;2.97;;;6.20;99.90;;;;;;5054848;28;20047;-72
2022/09/29 00:27:16;;;;;;;33.28;4.50;;;6.00;99.90;;;;;;5072391;28;20068;-71
2022/09/29 00:29:42;;;;;;;6.03;2.75;;;5.40;99.90;;;;;;5072756;28;20504;-71
2022/09/29 00:32:09;;;;;;;11.15;3.35;;;6.30;99.90;;;;;;5072873;28;20056;-72
2022/09/29 00:34:35;;;;;;;15.88;3.38;;;6.10;99.90;;;;;;5072896;28;20055;-73
2022/09/29 00:37:01;;;;;;;11.13;3.40;;;5.70;99.90;;;;;;5055550;28;20149;-72
2022/09/29 00:39:26;;;;;;;35.35;5.18;;;5.90;99.90;;;;;;5072994;28;20068;-72
2022/09/29 00:41:52;;;;;;;41.83;5.07;;;5.40;99.90;;;;;;5054748;28;20045;-72
2022/09/29 00:44:20;;;;;;;27.10;4.72;;;5.50;99.90;;;;;;5054450;28;20131;-71
2022/09/29 00:47:03;;;;;;;11.60;4.00;;;6.40;99.90;;;;;;5055004;28;20044;-70
2022/09/29 00:49:41;;;;;;;37.28;4.78;;;5.80;99.90;;;;;;5054830;28;20044;-71
2022/09/29 00:52:21;;;;;;;16.02;4.07;;;5.30;99.90;;;;;;5054809;28;20124;-72
2022/09/29 00:54:52;;;;;;;19.75;4.18;;;5.40;99.90;;;;;;5072052;28;20484;-71
2022/09/29 00:57:23;;;;;;;26.73;4.57;;;6.10;99.90;;;;;;5072718;28;20045;-70
2022/09/29 01:00:00;;;;;;;18.55;3.53;;;6.10;99.90;;;;;;5053951;28;20129;-71
2022/09/29 01:02:26;;;;;;;9.38;3.60;;;5.40;99.90;;;;;;5054517;28;20052;-70
2022/09/29 01:04:54;;;;;;;8.63;3.17;;;6.40;99.90;;;;;;5072249;28;20480;-72
2022/09/29 01:07:23;;;;;;;14.70;3.80;;;5.40;99.90;;;;;;5054852;28;20048;-73
2022/09/29 01:09:52;;;;;;;22.52;3.92;;;5.40;99.90;;;;;;5054586;28;20480;-72
2022/09/29 01:12:19;;;;;;;18.75;3.58;;;6.40;99.90;;;;;;5054836;28;20057;-74
2022/09/29 01:14:46;;;;;;;8.00;3.80;;;6.00;99.90;;;;;;5071638;28;20484;-73
2022/09/29 01:17:12;;;;;;;14.82;3.92;;;5.30;99.90;;;;;;5072428;28;20036;-72
2022/09/29 01:19:41;;;;;;;21.40;3.80;;;6.20;99.90;;;;;;5072539;28;20063;-72
2022/09/29 01:22:32;;;;;;;28.83;4.30;;;5.30;99.90;;;;;;5054513;28;20051;-71
2022/09/29 01:25:18;;;;;;;18.58;4.78;;;5.30;99.90;;;;;;5038392;28;20045;-74
2022/09/29 01:28:13;;;;;;;23.52;3.92;;;5.30;99.90;;;;;;5076205;28;20052;-73
2022/09/29 01:31:11;;;;;;;26.58;5.50;;;5.30;99.90;;;;;;5064221;28;20060;-72
2022/09/29 01:34:05;;;;;;;28.02;4.28;;;5.30;99.90;;;;;;5075868;28;20178;-70
2022/09/29 01:36:53;;;;;;;29.65;4.22;;;5.70;99.90;;;;;;5075930;28;20063;-73
2022/09/29 01:39:24;;;;;;;21.88;3.85;;;5.20;99.90;;;;;;5076100;28;20115;-72
2022/09/29 01:41:58;;;;;;;16.98;4.22;;;5.20;99.90;;;;;;5057837;28;20056;-72
2022/09/29 01:44:39;;;;;;;12.10;3.95;;;5.10;99.90;;;;;;5076139;28;20115;-73
2022/09/29 01:47:16;;;;;;;9.23;3.72;;;5.50;99.90;;;;;;5057512;28;20045;-72
2022/09/29 01:49:50;;;;;;;17.65;3.88;;;4.80;99.90;;;;;;5057763;28;20075;-70
2022/09/29 01:52:24;;;;;;;15.55;3.80;;;6.20;99.90;;;;;;5075371;28;20484;-72
2022/09/29 01:54:54;;;;;;;17.65;3.83;;;5.90;99.90;;;;;;5057626;28;20049;-71
2022/09/29 01:57:44;;;;;;;10.65;3.67;;;5.20;99.90;;;;;;5058096;28;20431;-72
2022/09/29 02:00:12;;;;;;;15.88;4.18;;;5.20;99.90;;;;;;5075607;28;20075;-72
2022/09/29 02:02:47;;;;;;;26.90;4.47;;;5.10;99.90;;;;;;5057315;28;20052;-75
2022/09/29 02:05:39;;;;;;;12.80;3.53;;;5.10;99.90;;;;;;5075303;28;20052;-74
2022/09/29 02:08:14;;;;;;;12.18;3.25;;;5.10;99.90;;;;;;5061805;28;20044;-74
2022/09/29 02:10:48;;;;;;;8.02;3.90;;;5.80;99.90;;;;;;5057596;28;20048;-75
2022/09/29 02:13:15;;;;;;;8.80;3.58;;;5.80;99.90;;;;;;5057224;28;20041;-74
2022/09/29 02:15:45;;;;;;;9.07;3.38;;;6.00;99.90;;;;;;5057781;28;20052;-73
2022/09/29 02:18:21;;;;;;;21.38;4.35;;;5.30;99.90;;;;;;5074975;28;20543;-75
2022/09/29 02:20:49;;;;;;;14.65;3.63;;;4.90;99.90;;;;;;5074848;28;20435;-72
2022/09/29 02:23:15;;;;;;;15.82;4.03;;;6.00;99.90;;;;;;5075247;28;20106;-73
2022/09/29 02:25:42;;;;;;;15.80;4.20;;;5.50;99.90;;;;;;5074961;28;20438;-72
2022/09/29 02:28:08;;;;;;;8.30;3.05;;;4.80;99.90;;;;;;5057173;28;20076;-72
2022/09/29 02:30:35;;;;;;;6.68;3.25;;;4.80;99.90;;;;;;5075030;28;20055;-72
2022/09/29 02:33:00;;;;;;;8.30;3.13;;;5.70;99.90;;;;;;5056541;28;20577;-73
2022/09/29 02:35:42;;;;;;;34.78;5.13;;;4.70;99.90;;;;;;5074609;28;20087;-72
2022/09/29 02:38:23;;;;;;;9.43;4.10;;;4.80;99.90;;;;;;5074751;28;20055;-72
2022/09/29 02:41:03;;;;;;;39.53;4.75;;;5.90;99.90;;;;;;5074989;28;20376;-72
2022/09/29 02:43:47;;;;;;;15.82;3.72;;;4.80;99.90;;;;;;5056948;28;20372;-71
2022/09/29 02:46:28;;;;;;;14.73;4.07;;;4.80;99.90;;;;;;5074731;28;20044;-72
2022/09/29 02:49:22;;;;;;;26.90;4.50;;;4.80;99.90;;;;;;5056759;28;20059;-71
2022/09/29 02:51:55;;;;;;;14.75;4.25;;;4.80;99.90;;;;;;5055853;28;20512;-69
2022/09/29 02:54:30;;;;;;;9.95;3.95;;;4.30;99.90;;;;;;5074784;28;20098;-72
2022/09/29 02:57:03;;;;;;;13.60;3.97;;;5.40;99.90;;;;;;5074497;28;20071;-72
2022/09/29 03:00:10;;;;;;;8.70;3.75;;;5.40;99.90;;;;;;5074436;28;20048;-72
2022/09/29 03:02:40;;;;;;;17.38;4.00;;;4.80;99.90;;;;;;5074612;28;20052;-73
2022/09/29 03:05:12;;;;;;;36.10;4.95;;;4.70;99.90;;;;;;5074217;28;20460;-72
2022/09/29 03:07:38;;;;;;;28.80;4.97;;;;;;;;;;5056239;28;20209;-72
2022/09/29 03:10:05;;;;;;;13.60;3.70;;;4.60;99.90;;;;;;5074308;28;20504;-72
2022/09/29 03:12:31;;;;;;;20.73;4.30;;;4.60;99.90;;;;;;5056120;28;20102;-72
2022/09/29 03:14:57;;;;;;;29.92;4.43;;;4.60;99.90;;;;;;5056397;28;20056;-72
2022/09/29 03:17:22;;;;;;;31.63;5.10;;;4.60;99.90;;;;;;5056407;28;20439;-71
2022/09/29 03:19:48;;;;;;;20.33;4.53;;;4.60;99.90;;;;;;5074033;28;20045;-71
2022/09/29 03:22:14;;;;;;;19.02;4.35;;;5.20;99.90;;;;;;5055361;28;20475;-71
2022/09/29 03:24:40;;;;;;;25.60;4.63;;;4.60;99.90;;;;;;5055872;28;20048;-71
2022/09/29 03:27:08;;;;;;;18.88;4.63;;;5.30;99.90;;;;;;5058931;28;20126;-72
2022/09/29 03:29:34;;;;;;;37.45;4.80;;;4.60;99.90;;;;;;5018618;28;20037;-72
2022/09/29 03:32:00;;;;;;;24.63;4.43;;;4.60;99.90;;;;;;5065655;28;20163;-72
2022/09/29 03:34:26;;;;;;;27.63;4.57;;;4.60;99.90;;;;;;5042885;28;20055;-71
2022/09/29 03:36:51;;;;;;;17.48;4.60;;;5.50;99.90;;;;;;5028339;28;20045;-71
2022/09/29 03:39:17;;;;;;;17.25;4.13;;;4.60;99.90;;;;;;5059803;28;20048;-71
2022/09/29 03:41:43;;;;;;;20.25;4.18;;;5.50;99.90;;;;;;5042053;28;20041;-72
2022/09/29 03:44:08;;;;;;;11.35;3.50;;;5.30;99.90;;;;;;5030378;28;20049;-72
2022/09/29 03:46:34;;;;;;;9.48;3.88;;;5.20;99.90;;;;;;5042644;28;20530;-74
2022/09/29 03:49:00;;;;;;;16.48;3.72;;;4.60;99.90;;;;;;5042622;28;20053;-73
2022/09/29 03:51:25;;;;;;;13.05;3.47;;;5.40;99.90;;;;;;5062175;28;20124;-75
2022/09/29 03:53:51;;;;;;;8.07;3.53;;;4.50;99.90;;;;;;5051164;28;20395;-74
2022/09/29 03:56:17;;;;;;;9.68;3.25;;;4.50;99.90;;;;;;5054905;28;20468;-74
2022/09/29 03:58:42;;;;;;;11.90;3.60;;;4.70;99.90;;;;;;5073048;28;20047;-74
2022/09/29 04:01:08;;;;;;;11.80;3.25;;;5.40;99.90;;;;;;5073262;28;20062;-74
2022/09/29 04:03:34;;;;;;;13.52;3.35;;;5.40;99.90;;;;;;5055398;28;20083;-74
2022/09/29 04:05:59;;;;;;;10.60;3.15;;;4.90;99.90;;;;;;5055425;28;20044;-74
2022/09/29 04:08:25;;;;;;;17.52;3.92;;;4.20;99.90;;;;;;5073369;28;20045;-73
2022/09/29 04:10:50;;;;;;;15.88;3.65;;;4.60;99.90;;;;;;5054278;28;20056;-72
2022/09/29 04:13:16;;;;;;;28.48;4.85;;;5.10;99.90;;;;;;5055246;28;20047;-74
2022/09/29 04:15:43;;;;;;;22.70;3.63;;;5.00;99.90;;;;;;5055319;28;20076;-74
2022/09/29 04:18:09;;;;;;;21.17;3.83;;;4.20;99.90;;;;;;5055448;28;20399;-73
2022/09/29 04:20:36;;;;;;;15.57;3.40;;;4.50;99.90;;;;;;5055229;28;20541;-74
2022/09/29 04:23:03;;;;;;;14.52;3.95;;;4.10;99.90;;;;;;5054836;28;20040;-73
2022/09/29 04:25:29;;;;;;;15.57;4.00;;;4.20;99.90;;;;;;5072634;28;20055;-72
2022/09/29 04:27:54;;;;;;;22.08;4.40;;;4.20;99.90;;;;;;5072531;28;20036;-72
2022/09/29 04:30:20;;;;;;;16.60;3.78;;;4.20;99.90;;;;;;5072805;28;20041;-72
2022/09/29 04:32:46;;;;;;;18.30;4.13;;;;;;;;;;5072904;28;20110;-73
2022/09/29 04:35:12;;;;;;;12.88;3.55;;;4.10;99.90;;;;;;5054739;28;20052;-72
2022/09/29 04:37:37;;;;;;;21.77;4.65;;;4.30;99.90;;;;;;5072843;28;20620;-73
2022/09/29 04:40:04;;;;;;;13.05;4.07;;;5.00;99.90;;;;;;5072726;28;20044;-72
2022/09/29 04:42:30;;;;;;;19.35;4.50;;;4.10;99.90;;;;;;5054088;28;20045;-72
2022/09/29 04:44:55;;;;;;;15.75;3.58;;;4.80;99.90;;;;;;5072491;28;20101;-72
2022/09/29 04:47:21;;;;;;;20.70;4.85;;;4.00;99.90;;;;;;5072585;28;20048;-71
2022/09/29 04:49:47;;;;;;;15.23;4.90;;;5.00;99.90;;;;;;5034503;28;20137;-72
2022/09/29 04:52:13;;;;;;;18.60;4.72;;;4.80;99.90;;;;;;5018410;28;20052;-72
2022/09/29 04:54:39;;;;;;;14.15;4.20;;;4.90;99.90;;;;;;5034801;28;20041;-72
2022/09/29 04:57:05;;;;;;;21.20;4.50;;;5.00;99.90;;;;;;5052597;28;20048;-72
2022/09/29 04:59:31;;;;;;;14.90;4.60;;;4.80;99.90;;;;;;5053346;28;20210;-70
2022/09/29 05:01:57;;;;;;;13.38;4.32;;;4.60;99.90;;;;;;5038796;28;20480;-72
2022/09/29 05:04:23;;;;;;;16.27;4.25;;;4.60;99.90;;;;;;5056613;28;20048;-72
2022/09/29 05:06:48;;;;;;;11.63;4.10;;;3.90;99.90;;;;;;5038302;28;20455;-72
2022/09/29 05:09:14;;;;;;;11.20;4.22;;;4.50;99.90;;;;;;5056855;28;20052;-73
2022/09/29 05:11:40;;;;;;;9.63;4.30;;;4.50;99.90;;;;;;5038759;28;20045;-72
2022/09/29 05:14:06;;;;;;;14.48;4.35;;;3.90;99.90;;;;;;5056148;28;20765;-70
2022/09/29 05:16:31;;;;;;;10.95;4.15;;;4.10;99.90;;;;;;5038354;28;20045;-72
2022/09/29 05:18:57;;;;;;;10.68;4.40;;;3.90;99.90;;;;;;5038687;28;20044;-73
2022/09/29 05:21:23;;;;;;;31.42;5.18;;;5.10;99.90;;;;;;5038242;28;20060;-70
2022/09/29 05:23:49;;;;;;;11.70;4.38;;;4.30;99.90;;;;;;5038279;28;20037;-72
2022/09/29 05:26:15;;;;;;;7.97;3.70;;;4.40;99.90;;;;;;5038090;28;20485;-72
2022/09/29 05:28:46;;;;;;;13.45;4.20;;;5.10;99.90;;;;;;5038603;28;20041;-71
2022/09/29 05:31:13;;;;;;;9.35;3.90;;;3.80;99.90;;;;;;5037752;28;20057;-74
2022/09/29 05:33:39;;;;;;;6.85;3.22;;;3.80;99.90;;;;;;5055575;28;20085;-74
2022/09/29 05:36:10;;;;;;;18.95;4.47;;;4.40;99.90;;;;;;5056140;28;20088;-73
2022/09/29 05:38:36;;;;;;;13.52;3.60;;;3.80;99.90;;;;;;5038256;28;20099;-72
2022/09/29 05:41:04;;;;;;;10.85;4.03;;;4.40;99.90;;;;;;5020534;28;20140;-72
2022/09/29 05:43:30;;;;;;;8.13;3.58;;;3.80;99.90;;;;;;5037871;28;20390;-73
2022/09/29 05:46:03;;;;;;;8.50;3.50;;;4.70;99.90;;;;;;5075138;28;20060;-71
2022/09/29 05:48:30;;;;;;;7.97;3.45;;;4.70;99.90;;;;;;5053124;28;20045;-72
2022/09/29 05:50:57;;;;;;;7.65;3.38;;;3.80;99.90;;;;;;5066486;28;20044;-71
2022/09/29 05:53:23;;;;;;;6.90;3.00;;;4.60;99.90;;;;;;5062752;28;20142;-73
2022/09/29 05:55:49;;;;;;;8.90;3.38;;;4.10;99.90;;;;;;5045629;28;20049;-71
2022/09/29 05:58:14;;;;;;;11.30;3.13;;;3.80;99.90;;;;;;5048916;28;20059;-72
2022/09/29 06:00:40;;;;;;;7.80;3.90;;;4.40;99.90;;;;;;5066300;28;20056;-71
2022/09/29 06:03:06;;;;;;;8.55;3.35;;;3.80;99.90;;;;;;5025018;28;20036;-73
2022/09/29 06:05:31;;;;;;;7.18;3.55;;;4.80;99.90;;;;;;5064351;28;20047;-72
2022/09/29 06:07:57;;;;;;;6.45;3.00;;;4.90;99.90;;;;;;5063029;28;20036;-74
2022/09/29 06:10:23;;;;;;;9.13;3.40;;;4.10;99.90;;;;;;5028489;28;20052;-72
2022/09/29 06:12:49;;;;;;;9.70;3.58;;;3.90;99.90;;;;;;5058709;28;20099;-70
2022/09/29 06:15:14;;;;;;;7.32;3.08;;;4.00;99.90;;;;;;5028947;28;20037;-72
2022/09/29 06:17:40;;;;;;;7.15;3.42;;;5.00;99.90;;;;;;5058650;28;20114;-70
2022/09/29 06:20:06;;;;;;;8.27;3.60;;;4.50;99.90;;;;;;5036968;28;20131;-73
2022/09/29 06:22:32;;;;;;;8.20;3.78;;;4.00;99.90;;;;;;5037245;28;20045;-72
2022/09/29 06:24:58;;;;;;;9.02;3.85;;;3.60;99.90;;;;;;5037256;28;20496;-72
2022/09/29 06:27:24;;;;;;;9.13;3.65;;;5.10;99.90;;;;;;5055120;28;20131;-70
2022/09/29 06:29:50;;;;;;;9.07;3.72;;;4.20;99.90;;;;;;5055019;28;20041;-74
2022/09/29 06:32:16;;;;;;;8.77;3.90;;;5.30;99.90;;;;;;5037253;28;20068;-71
2022/09/29 06:37:35;;;;;;;10.35;4.60;;;5.20;99.90;;;;;;5055077;28;20053;-75
2022/09/29 06:40:03;;;;;;;8.77;3.88;;;4.50;99.90;;;;;;5037236;28;20076;-73
2022/09/29 06:42:29;;;;;;;9.32;3.90;;;4.60;99.90;;;;;;5024397;28;20123;-70
2022/09/29 06:44:55;;;;;;;10.35;4.45;;;4.80;99.90;;;;;;5073817;28;20071;-71
2022/09/29 06:47:20;;;;;;;9.55;4.55;;;4.80;99.90;;;;;;5073753;28;20045;-72
2022/09/29 06:49:47;;;;;;;10.15;4.40;;;5.40;99.90;;;;;;5056302;28;20076;-72
2022/09/29 06:52:21;;;;;;;10.15;4.63;;;5.60;99.90;;;;;;5074260;28;20574;-72
2022/09/29 06:54:46;;;;;;;10.20;4.82;;;5.70;99.90;;;;;;5056771;28;20055;-70
2022/09/29 06:57:12;;;;;;;15.23;5.30;;;5.10;99.90;;;;;;5073981;28;20048;-69
2022/09/29 06:59:38;;;;;;;10.93;5.50;;;5.10;99.90;;;;;;5056539;28;20070;-72
2022/09/29 07:02:09;;;;;;;14.32;5.00;;;5.20;99.90;;;;;;5065093;28;20044;-73
2022/09/29 07:04:35;;;;;;;10.98;5.53;;;5.20;99.90;;;;;;5055972;28;20480;-72
2022/09/29 07:07:00;;;;;;;11.57;5.50;;;5.30;99.90;;;;;;5063940;28;20124;-74
2022/09/29 07:09:26;;;;;;;11.10;5.03;;;5.30;99.90;;;;;;5063630;28;20120;-76
2022/09/29 07:11:52;;;;;;;15.65;5.80;;;6.30;99.90;;;;;;5061663;28;20090;-75
2022/09/29 07:14:22;;;;;;;13.00;5.88;;;5.60;99.90;;;;;;5065099;28;20040;-74
2022/09/29 07:16:48;;;;;;;12.45;6.07;;;5.50;99.90;;;;;;5047585;28;20068;-73
2022/09/29 07:19:18;;;;;;;17.10;6.13;;;5.50;99.90;;;;;;5072626;28;20118;-77
2022/09/29 07:21:48;;;;;;;17.25;5.80;;;5.50;99.90;;;;;;5037299;28;20040;-85
2022/09/29 07:24:14;;;;;;;14.57;6.05;;;5.60;99.90;;;;;;5049549;28;20044;-75
2022/09/29 07:26:40;;;;;;;13.02;6.95;;;5.70;99.90;;;;;;5052380;28;20041;-72
2022/09/29 07:29:06;;;;;;;17.77;6.10;;;5.70;99.90;;;;;;5064092;28;20049;-73
2022/09/29 07:31:32;;;;;;;13.95;6.55;;;5.80;99.90;;;;;;5063754;28;20048;-68
2022/09/29 07:33:57;;;;;;;14.30;6.15;;;5.80;99.90;;;;;;5047599;28;20118;-72
2022/09/29 07:36:23;;;;;;;13.13;6.57;;;5.90;99.90;;;;;;5043479;28;20095;-72
2022/09/29 07:38:50;;;;;;;14.68;7.03;;;5.90;99.90;;;;;;5045381;28;20047;-69
2022/09/29 07:41:19;;;;;;;14.70;6.97;;;6.50;99.90;;;;;;5043354;28;20048;-69
2022/09/29 07:43:44;;;;;;;17.10;7.53;;;7.00;99.90;;;;;;5045139;28;20080;-70
2022/09/29 07:46:10;;;;;;;16.05;7.40;;;6.20;99.90;;;;;;5049443;28;20091;-78
2022/09/29 07:48:37;;;;;;;17.30;7.43;;;6.30;99.90;;;;;;5044548;28;20477;-69
2022/09/29 07:51:12;;;;;;;19.90;7.63;;;6.90;99.90;;;;;;5065343;28;20037;-72
2022/09/29 07:53:37;;;;;;;15.32;7.30;;;6.50;99.90;;;;;;5048576;28;20089;-71
2022/09/29 07:56:06;;;;;;;16.67;7.22;;;7.20;99.90;;;;;;5044901;28;20048;-69
2022/09/29 07:58:33;;;;;;;13.35;7.35;;;6.70;99.90;;;;;;5063162;28;20507;-74
2022/09/29 08:01:00;;;;;;;21.20;8.43;;;6.80;99.90;;;;;;5060770;28;20044;-71
2022/09/29 08:03:26;;;;;;;17.40;7.30;;;7.70;99.90;;;;;;5045704;28;20105;-71
2022/09/29 08:05:52;;;;;;;16.55;8.38;;;7.80;99.90;;;;;;5043398;28;20415;-71
2022/09/29 08:08:18;;;;;;;19.23;9.50;;;7.00;99.90;;;;;;5063290;28;20048;-71
2022/09/29 08:10:44;;;;;;;15.55;7.90;;;7.30;99.90;;;;;;5066101;28;20041;-74
2022/09/29 08:13:09;;;;;;;16.05;7.75;;;7.60;99.90;;;;;;5060227;28;20067;-74
